createdAt,value
2023-05-11T00:01:59.687Z,12.39
2023-05-11T00:04:27.163Z,12.40
2023-05-11T00:06:56.370Z,12.21
2023-05-11T00:09:23.549Z,12.43
2023-05-11T00:11:54.726Z,12.43
2023-05-11T00:14:27.860Z,12.55
2023-05-11T00:16:58.588Z,12.73
2023-05-11T00:19:26.364Z,12.93
2023-05-11T00:21:53.587Z,12.58
2023-05-11T00:24:20.657Z,12.58
2023-05-11T00:26:47.950Z,12.65
2023-05-11T00:29:15.278Z,12.92
2023-05-11T00:31:42.681Z,12.64
2023-05-11T00:34:10.131Z,12.44
2023-05-11T00:36:41.369Z,12.79
2023-05-11T00:39:09.276Z,12.40
2023-05-11T00:41:36.640Z,12.55
2023-05-11T00:44:04.458Z,12.65
2023-05-11T00:46:31.873Z,12.45
2023-05-11T00:48:58.954Z,12.38
2023-05-11T00:51:27.012Z,12.59
2023-05-11T00:53:54.178Z,12.50
2023-05-11T00:56:21.903Z,12.60
2023-05-11T00:58:49.492Z,12.76
2023-05-11T01:01:21.436Z,12.55
2023-05-11T01:03:49.349Z,12.55
2023-05-11T01:06:42.956Z,12.62
2023-05-11T01:09:20.177Z,12.56
2023-05-11T01:11:58.365Z,12.50
2023-05-11T01:14:39.579Z,12.58
2023-05-11T01:17:13.827Z,12.88
2023-05-11T01:20:06.436Z,12.65
2023-05-11T01:23:15.044Z,12.80
2023-05-11T01:26:11.319Z,13.13
2023-05-11T01:29:05.766Z,12.86
2023-05-11T01:34:33.541Z,12.89
2023-05-11T01:37:25.275Z,12.92
2023-05-11T01:40:04.181Z,12.70
2023-05-11T01:42:35.848Z,12.66
2023-05-11T01:45:04.603Z,12.76
2023-05-11T01:47:32.537Z,12.54
2023-05-11T01:50:03.635Z,12.52
2023-05-11T01:52:32.720Z,12.48
2023-05-11T01:55:02.639Z,12.49
2023-05-11T01:57:31.543Z,12.40
2023-05-11T02:00:00.036Z,12.60
2023-05-11T02:02:27.987Z,12.71
2023-05-11T02:04:55.943Z,12.47
2023-05-11T02:07:25.622Z,12.37
2023-05-11T02:09:55.609Z,12.77
2023-05-11T02:12:24.276Z,12.64
2023-05-11T02:14:53.067Z,12.71
2023-05-11T02:17:23.307Z,12.62
2023-05-11T02:19:51.898Z,12.63
2023-05-11T02:22:24.976Z,12.63
2023-05-11T02:24:52.206Z,12.60
2023-05-11T02:27:19.318Z,12.84
2023-05-11T02:29:47.953Z,12.73
2023-05-11T02:32:18.630Z,12.83
2023-05-11T02:34:54.865Z,12.66
2023-05-11T02:37:25.896Z,12.41
2023-05-11T02:43:19.771Z,13.68
2023-05-11T02:45:48.397Z,13.34
2023-05-11T02:48:27.942Z,13.22
2023-05-11T02:50:57.056Z,13.01
2023-05-11T02:53:27.778Z,12.93
2023-05-11T02:55:58.002Z,12.83
2023-05-11T02:58:25.412Z,12.83
2023-05-11T03:00:52.679Z,13.11
2023-05-11T03:03:27.874Z,13.16
2023-05-11T03:05:54.941Z,12.82
2023-05-11T03:08:21.788Z,12.90
2023-05-11T03:10:53.329Z,12.62
2023-05-11T03:13:25.206Z,12.64
2023-05-11T03:15:53.331Z,12.51
2023-05-11T03:18:21.534Z,12.52
2023-05-11T03:20:50.210Z,12.46
2023-05-11T03:23:18.672Z,12.52
2023-05-11T03:25:47.097Z,12.50
2023-05-11T03:28:14.999Z,12.54
2023-05-11T03:30:45.403Z,12.72
2023-05-11T03:33:12.821Z,12.55
2023-05-11T03:35:43.546Z,12.76
2023-05-11T03:38:13.761Z,12.91
2023-05-11T03:40:42.668Z,12.88
2023-05-11T03:43:12.659Z,13.13
2023-05-11T03:45:42.938Z,12.85
2023-05-11T03:48:11.900Z,12.71
2023-05-11T03:50:39.784Z,12.59
2023-05-11T03:53:07.763Z,12.58
2023-05-11T03:55:36.480Z,12.42
2023-05-11T03:58:07.925Z,12.46
2023-05-11T04:00:40.677Z,12.53
2023-05-11T04:03:09.500Z,12.39
2023-05-11T04:05:36.659Z,12.48
2023-05-11T04:08:07.118Z,12.28
2023-05-11T04:10:33.920Z,12.45
2023-05-11T04:13:04.266Z,12.53
2023-05-11T04:15:31.223Z,12.47
2023-05-11T04:17:58.314Z,12.38
2023-05-11T04:20:25.428Z,12.35
2023-05-11T04:22:55.665Z,12.71
2023-05-11T04:25:26.202Z,12.71
2023-05-11T04:27:57.198Z,12.76
2023-05-11T04:30:32.614Z,12.58
2023-05-11T04:33:02.496Z,12.64
2023-05-11T04:35:29.493Z,12.58
2023-05-11T04:37:56.243Z,12.84
2023-05-11T04:40:23.277Z,12.72
2023-05-11T04:42:49.965Z,12.82
2023-05-11T04:45:17.303Z,12.59
2023-05-11T04:47:45.859Z,12.35
2023-05-11T04:50:21.638Z,12.18
2023-05-11T04:52:48.872Z,12.45
2023-05-11T04:58:06.994Z,12.39
2023-05-11T05:00:33.933Z,12.30
2023-05-11T05:03:00.946Z,12.37
2023-05-11T05:05:27.993Z,12.32
2023-05-11T05:07:54.865Z,12.38
2023-05-11T05:10:22.252Z,12.53
2023-05-11T05:12:49.357Z,12.44
2023-05-11T05:15:16.215Z,12.57
2023-05-11T05:17:43.456Z,12.45
2023-05-11T05:20:10.729Z,12.54
2023-05-11T05:22:37.599Z,12.80
2023-05-11T05:25:04.702Z,12.81
2023-05-11T05:27:34.773Z,13.01
2023-05-11T05:30:01.915Z,12.88
2023-05-11T05:32:29.159Z,13.09
2023-05-11T05:34:56.361Z,13.02
2023-05-11T05:37:23.280Z,13.19
2023-05-11T05:39:50.115Z,13.26
2023-05-11T05:42:19.567Z,13.11
2023-05-11T05:44:46.416Z,12.94
2023-05-11T05:47:13.193Z,13.15
2023-05-11T05:49:40.215Z,12.95
2023-05-11T05:52:07.609Z,13.01
2023-05-11T05:54:34.496Z,13.24
2023-05-11T05:57:01.473Z,13.27
2023-05-11T05:59:28.503Z,13.08
2023-05-11T06:01:55.624Z,12.94
2023-05-11T06:04:22.620Z,13.05
2023-05-11T06:06:49.992Z,13.24
2023-05-11T06:09:16.821Z,13.18
2023-05-11T06:11:43.887Z,13.07
2023-05-11T06:14:19.607Z,13.10
2023-05-11T06:16:46.651Z,13.05
2023-05-11T06:19:13.688Z,13.36
2023-05-11T06:21:43.007Z,13.48
2023-05-11T06:24:09.977Z,13.43
2023-05-11T06:26:37.046Z,13.44
2023-05-11T06:29:03.850Z,13.57
2023-05-11T06:31:34.540Z,13.43
2023-05-11T06:34:01.568Z,13.73
2023-05-11T06:36:28.564Z,13.87
2023-05-11T06:38:55.585Z,13.91
2023-05-11T06:41:22.742Z,13.26
2023-05-11T06:43:49.526Z,13.33
2023-05-11T06:46:18.196Z,13.59
2023-05-11T06:48:44.962Z,13.69
2023-05-11T06:51:12.330Z,13.76
2023-05-11T06:53:39.677Z,13.62
2023-05-11T06:56:07.373Z,13.63
2023-05-11T06:58:34.334Z,14.08
2023-05-11T07:01:02.587Z,13.65
2023-05-11T07:03:29.504Z,13.79
2023-05-11T07:05:56.297Z,13.73
2023-05-11T07:08:23.298Z,13.97
2023-05-11T07:10:50.226Z,13.81
2023-05-11T07:13:17.226Z,13.72
2023-05-11T07:15:44.144Z,13.76
2023-05-11T07:18:11.223Z,13.47
2023-05-11T07:20:40.058Z,13.78
2023-05-11T07:23:07.582Z,14.12
2023-05-11T07:25:34.468Z,14.13
2023-05-11T07:28:01.257Z,14.06
2023-05-11T07:30:28.162Z,13.71
2023-05-11T07:32:55.113Z,13.85
2023-05-11T07:35:24.042Z,14.13
2023-05-11T07:37:51.479Z,14.17
2023-05-11T07:40:20.780Z,14.26
2023-05-11T07:42:47.800Z,14.29
2023-05-11T07:45:14.842Z,14.37
2023-05-11T07:47:41.876Z,14.46
2023-05-11T07:50:09.148Z,14.94
2023-05-11T07:52:36.121Z,15.03
2023-05-11T07:55:02.954Z,14.89
2023-05-11T07:57:29.906Z,14.67
2023-05-11T07:59:57.082Z,14.15
2023-05-11T08:02:24.034Z,14.49
2023-05-11T08:04:51.070Z,15.08
2023-05-11T08:07:17.939Z,15.41
2023-05-11T08:09:44.688Z,14.99
2023-05-11T08:12:11.604Z,15.32
2023-05-11T08:14:38.606Z,15.33
2023-05-11T08:17:14.454Z,15.12
2023-05-11T08:19:41.378Z,15.16
2023-05-11T08:22:08.230Z,14.96
2023-05-11T08:24:35.112Z,14.74
2023-05-11T08:27:02.988Z,15.13
2023-05-11T08:29:29.884Z,15.03
2023-05-11T08:31:56.855Z,15.08
2023-05-11T08:34:24.123Z,15.18
2023-05-11T08:36:51.215Z,15.18
2023-05-11T08:39:32.877Z,14.92
2023-05-11T08:42:07.385Z,14.76
2023-05-11T08:44:36.208Z,15.19
2023-05-11T08:47:21.076Z,15.28
2023-05-11T08:49:49.337Z,15.66
2023-05-11T08:52:18.510Z,15.37
2023-05-11T08:54:46.370Z,15.28
2023-05-11T08:57:14.773Z,15.60
2023-05-11T08:59:44.649Z,16.04
2023-05-11T09:02:16.788Z,15.46
2023-05-11T09:04:47.500Z,15.81
2023-05-11T09:07:17.465Z,16.04
2023-05-11T09:09:46.725Z,16.27
2023-05-11T09:12:13.809Z,15.48
2023-05-11T09:14:42.384Z,16.46
2023-05-11T09:17:09.217Z,16.66
2023-05-11T09:19:36.496Z,16.31
2023-05-11T09:22:06.615Z,16.26
2023-05-11T09:24:33.437Z,16.51
2023-05-11T09:27:09.419Z,16.19
2023-05-11T09:29:36.536Z,16.27
2023-05-11T09:32:03.399Z,16.10
2023-05-11T09:34:30.483Z,16.25
2023-05-11T09:36:57.650Z,16.79
2023-05-11T09:39:41.816Z,16.93
2023-05-11T09:42:22.374Z,16.96
2023-05-11T09:44:49.599Z,17.49
2023-05-11T09:47:21.097Z,17.76
2023-05-11T09:49:50.192Z,17.90
2023-05-11T09:52:18.954Z,17.77
2023-05-11T09:54:47.923Z,17.87
2023-05-11T09:57:29.302Z,18.14
2023-05-11T09:59:57.689Z,18.50
2023-05-11T10:02:26.666Z,18.64
2023-05-11T10:05:04.214Z,18.39
2023-05-11T10:07:32.265Z,18.71
2023-05-11T10:10:01.860Z,18.92
2023-05-11T10:12:30.562Z,18.35
2023-05-11T10:15:07.594Z,18.37
2023-05-11T10:17:35.331Z,18.65
2023-05-11T10:20:04.244Z,18.76
2023-05-11T10:22:32.838Z,18.20
2023-05-11T10:25:00.541Z,18.32
2023-05-11T10:27:28.048Z,17.77
2023-05-11T10:29:55.721Z,18.06
2023-05-11T10:32:22.792Z,18.29
2023-05-11T10:34:52.903Z,17.68
2023-05-11T10:37:21.423Z,17.05
2023-05-11T10:39:50.626Z,18.08
2023-05-11T10:42:56.509Z,18.16
2023-05-11T10:45:30.448Z,18.82
2023-05-11T10:48:30.161Z,18.34
2023-05-11T10:51:47.792Z,18.62
2023-05-11T10:54:49.512Z,18.90
2023-05-11T10:57:36.220Z,18.72
2023-05-11T11:00:18.697Z,18.58
2023-05-11T11:02:46.022Z,19.12
2023-05-11T11:05:17.526Z,19.16
2023-05-11T11:08:03.844Z,19.13
2023-05-11T11:10:30.745Z,17.80
2023-05-11T11:13:07.410Z,18.01
2023-05-11T11:15:56.162Z,17.65
2023-05-11T11:18:25.149Z,18.27
2023-05-11T11:20:53.860Z,18.57
2023-05-11T11:23:43.608Z,18.25
2023-05-11T11:26:19.114Z,18.54
2023-05-11T11:28:56.729Z,18.61
2023-05-11T11:31:31.900Z,18.95
2023-05-11T11:34:19.854Z,18.08
2023-05-11T11:36:55.641Z,18.62
2023-05-11T11:39:25.562Z,18.94
2023-05-11T11:42:05.428Z,19.18
2023-05-11T11:44:34.276Z,19.61
2023-05-11T11:47:11.520Z,19.40
2023-05-11T11:49:40.058Z,19.41
2023-05-11T11:52:11.629Z,19.46
2023-05-11T11:54:44.601Z,19.11
2023-05-11T11:57:30.277Z,19.67
2023-05-11T11:59:57.419Z,19.37
2023-05-11T12:02:26.374Z,19.35
2023-05-11T12:05:25.546Z,19.36
2023-05-11T12:07:53.493Z,19.19
2023-05-11T12:10:22.200Z,19.11
2023-05-11T12:12:50.999Z,19.38
2023-05-11T12:15:25.049Z,19.18
2023-05-11T12:17:52.291Z,19.42
2023-05-11T12:20:20.677Z,19.79
2023-05-11T12:22:53.898Z,19.77
2023-05-11T12:25:21.859Z,20.01
2023-05-11T12:28:03.431Z,20.52
2023-05-11T12:30:33.654Z,20.52
2023-05-11T12:33:04.433Z,19.55
2023-05-11T12:35:33.647Z,19.80
2023-05-11T12:38:05.262Z,19.63
2023-05-11T12:40:32.261Z,19.97
2023-05-11T12:43:00.780Z,19.57
2023-05-11T12:45:29.409Z,19.48
2023-05-11T12:47:57.451Z,19.48
2023-05-11T12:50:25.083Z,19.40
2023-05-11T12:52:52.895Z,19.10
2023-05-11T12:55:30.030Z,19.66
2023-05-11T12:58:15.165Z,19.44
2023-05-11T13:01:00.002Z,19.50
2023-05-11T13:03:32.732Z,19.23
2023-05-11T13:06:09.699Z,19.53
2023-05-11T13:08:48.220Z,19.38
2023-05-11T13:11:26.822Z,19.37
2023-05-11T13:13:55.374Z,19.71
2023-05-11T13:16:34.882Z,19.93
2023-05-11T13:19:06.654Z,19.77
2023-05-11T13:21:33.965Z,19.77
2023-05-11T13:24:04.069Z,19.21
2023-05-11T13:26:32.114Z,18.94
2023-05-11T13:29:10.177Z,18.89
2023-05-11T13:31:52.554Z,18.82
2023-05-11T13:34:20.545Z,18.98
2023-05-11T13:36:47.658Z,19.08
2023-05-11T13:39:14.466Z,19.07
2023-05-11T13:41:41.341Z,18.68
2023-05-11T13:44:08.381Z,18.76
2023-05-11T13:46:37.954Z,18.60
2023-05-11T13:49:05.278Z,18.35
2023-05-11T13:51:32.443Z,18.26
2023-05-11T13:54:04.814Z,18.22
2023-05-11T13:59:12.806Z,18.20
2023-05-11T14:01:39.776Z,18.12
2023-05-11T14:04:06.894Z,18.57
2023-05-11T14:06:35.379Z,18.18
2023-05-11T14:09:02.285Z,18.25
2023-05-11T14:11:29.232Z,17.96
2023-05-11T14:13:56.253Z,18.04
2023-05-11T14:16:23.164Z,18.14
2023-05-11T14:18:51.035Z,18.08
2023-05-11T14:21:18.370Z,18.09
2023-05-11T14:23:57.726Z,17.89
2023-05-11T14:26:29.927Z,17.81
2023-05-11T14:28:56.670Z,17.93
2023-05-11T14:34:07.123Z,17.66
2023-05-11T14:36:35.831Z,17.94
2023-05-11T14:39:03.264Z,17.92
2023-05-11T14:41:30.612Z,17.96
2023-05-11T14:43:58.073Z,18.05
2023-05-11T14:46:26.727Z,17.84
2023-05-11T14:48:55.413Z,17.68
2023-05-11T14:51:22.455Z,17.72
2023-05-11T14:53:49.220Z,17.62
2023-05-11T14:56:17.050Z,17.71
2023-05-11T14:58:43.947Z,17.42
2023-05-11T15:01:10.690Z,17.37
2023-05-11T15:03:37.848Z,17.51
2023-05-11T15:06:04.805Z,17.41
2023-05-11T15:08:32.577Z,17.39
2023-05-11T15:10:59.758Z,17.23
2023-05-11T15:13:27.010Z,17.19
2023-05-11T15:15:53.966Z,17.15
2023-05-11T15:18:21.121Z,16.71
2023-05-11T15:20:47.917Z,16.62
2023-05-11T15:23:17.935Z,16.52
2023-05-11T15:25:45.358Z,16.58
2023-05-11T15:28:12.840Z,16.32
2023-05-11T15:30:41.714Z,16.63
2023-05-11T15:33:11.067Z,16.54
2023-05-11T15:35:38.318Z,16.69
2023-05-11T15:38:05.456Z,16.58
2023-05-11T15:40:32.615Z,16.41
2023-05-11T15:42:59.570Z,16.61
2023-05-11T15:45:31.616Z,16.62
2023-05-11T15:47:58.944Z,16.38
2023-05-11T15:50:27.156Z,16.51
2023-05-11T15:52:56.522Z,16.38
2023-05-11T15:55:29.062Z,16.21
2023-05-11T15:57:56.866Z,16.21
2023-05-11T16:00:23.787Z,16.17
2023-05-11T16:02:51.000Z,16.19
2023-05-11T16:05:17.791Z,16.08
2023-05-11T16:07:44.735Z,15.77
2023-05-11T16:10:11.614Z,15.59
2023-05-11T16:12:38.376Z,15.77
2023-05-11T16:15:05.837Z,15.50
2023-05-11T16:17:32.706Z,15.80
2023-05-11T16:20:00.502Z,15.72
2023-05-11T16:22:27.518Z,15.51
2023-05-11T16:24:54.506Z,15.54
2023-05-11T16:27:21.288Z,15.55
2023-05-11T16:29:52.490Z,15.59
2023-05-11T16:32:20.559Z,15.55
2023-05-11T16:34:49.889Z,15.65
2023-05-11T16:37:19.832Z,15.44
2023-05-11T16:39:46.793Z,15.26
2023-05-11T16:42:13.913Z,15.29
2023-05-11T16:44:40.621Z,15.40
2023-05-11T16:47:09.550Z,15.59
2023-05-11T16:49:48.156Z,15.39
2023-05-11T16:52:36.061Z,15.58
2023-05-11T16:55:03.844Z,15.22
2023-05-11T16:57:31.748Z,15.31
2023-05-11T16:59:58.653Z,15.25
2023-05-11T17:02:25.524Z,15.32
2023-05-11T17:04:52.306Z,15.23
2023-05-11T17:07:19.223Z,15.39
2023-05-11T17:09:45.983Z,14.99
2023-05-11T17:12:12.694Z,14.91
2023-05-11T17:14:40.060Z,14.95
2023-05-11T17:17:08.172Z,14.98
2023-05-11T17:19:35.075Z,15.06
2023-05-11T17:22:02.408Z,14.86
2023-05-11T17:24:29.397Z,14.80
2023-05-11T17:26:56.357Z,14.94
2023-05-11T17:29:23.363Z,14.92
2023-05-11T17:34:37.304Z,14.65
2023-05-11T17:37:04.281Z,14.91
2023-05-11T17:39:40.373Z,14.81
2023-05-11T17:42:19.354Z,14.64
2023-05-11T17:44:46.439Z,14.81
2023-05-11T17:47:13.355Z,14.92
2023-05-11T17:49:40.331Z,14.92
2023-05-11T17:52:07.683Z,14.69
2023-05-11T17:54:34.806Z,14.57
2023-05-11T17:57:01.734Z,14.65
2023-05-11T17:59:31.661Z,14.91
2023-05-11T18:01:59.185Z,14.87
2023-05-11T18:04:26.037Z,14.60
2023-05-11T18:06:52.812Z,14.78
2023-05-11T18:09:24.618Z,14.70
2023-05-11T18:11:54.425Z,14.80
2023-05-11T18:14:21.266Z,15.17
2023-05-11T18:16:49.656Z,15.06
2023-05-11T18:19:23.097Z,14.86
2023-05-11T18:21:54.574Z,14.57
2023-05-11T18:24:27.118Z,14.47
2023-05-11T18:26:53.970Z,14.33
2023-05-11T18:29:22.171Z,14.15
2023-05-11T18:31:49.760Z,14.17
2023-05-11T18:34:16.785Z,14.21
2023-05-11T18:36:45.262Z,14.32
2023-05-11T18:39:14.771Z,14.31
2023-05-11T18:41:42.253Z,14.40
2023-05-11T18:44:11.829Z,14.30
2023-05-11T18:46:45.596Z,14.52
2023-05-11T18:49:16.111Z,14.57
2023-05-11T18:51:43.463Z,14.67
2023-05-11T18:54:12.888Z,14.54
2023-05-11T18:56:39.785Z,14.54
2023-05-11T18:59:06.932Z,14.39
2023-05-11T19:01:47.511Z,14.20
2023-05-11T19:04:20.133Z,14.25
2023-05-11T19:06:47.278Z,14.22
2023-05-11T19:09:14.306Z,14.29
2023-05-11T19:11:41.968Z,14.23
2023-05-11T19:14:10.732Z,14.29
2023-05-11T19:16:38.234Z,15.21
2023-05-11T19:19:23.570Z,14.78
2023-05-11T19:21:51.033Z,14.56
2023-05-11T19:24:18.435Z,14.45
2023-05-11T19:27:03.001Z,14.36
2023-05-11T19:29:33.440Z,14.36
2023-05-11T19:32:00.685Z,14.29
2023-05-11T19:34:35.347Z,14.38
2023-05-11T19:37:11.610Z,14.40
2023-05-11T19:39:39.280Z,14.33
2023-05-11T19:42:07.504Z,14.28
2023-05-11T19:44:37.882Z,14.30
2023-05-11T19:47:04.885Z,14.29
2023-05-11T19:49:31.821Z,14.45
2023-05-11T19:51:59.248Z,14.33
2023-05-11T19:54:26.216Z,14.43
2023-05-11T19:56:55.200Z,14.42
2023-05-11T19:59:22.547Z,14.45
2023-05-11T20:01:49.702Z,14.14
2023-05-11T20:04:19.649Z,14.25
2023-05-11T20:06:46.494Z,14.30
2023-05-11T20:09:13.529Z,14.19
2023-05-11T20:11:40.501Z,14.17
2023-05-11T20:14:07.284Z,14.23
2023-05-11T20:16:34.189Z,14.49
2023-05-11T20:19:01.165Z,14.36
2023-05-11T20:21:28.391Z,14.48
2023-05-11T20:23:55.430Z,14.16
2023-05-11T20:26:22.950Z,14.07
2023-05-11T20:28:49.663Z,14.33
2023-05-11T20:31:16.752Z,14.36
2023-05-11T20:36:19.341Z,14.29
2023-05-11T20:38:46.397Z,14.43
2023-05-11T20:41:13.953Z,14.21
2023-05-11T20:52:04.157Z,14.03
2023-05-11T20:54:33.959Z,13.86
2023-05-11T20:57:01.758Z,13.89
2023-05-11T21:02:01.971Z,14.02
2023-05-11T21:04:31.417Z,14.02
2023-05-11T21:06:58.392Z,13.80
2023-05-11T21:09:25.661Z,13.70
2023-05-11T21:11:52.787Z,13.63
2023-05-11T21:14:20.398Z,13.72
2023-05-11T21:16:48.108Z,13.87
2023-05-11T21:19:16.810Z,13.75
2023-05-11T21:21:43.690Z,13.46
2023-05-11T21:24:10.526Z,13.73
2023-05-11T21:26:37.438Z,13.57
2023-05-11T21:29:07.650Z,13.63
2023-05-11T21:31:34.621Z,13.47
2023-05-11T21:34:07.377Z,13.70
2023-05-11T21:36:39.276Z,13.53
2023-05-11T21:39:09.383Z,13.62
2023-05-11T21:41:39.343Z,13.96
2023-05-11T21:44:06.141Z,13.35
2023-05-11T21:46:33.090Z,13.37
2023-05-11T21:48:59.968Z,13.16
2023-05-11T21:51:26.946Z,13.43
2023-05-11T21:53:53.701Z,13.08
2023-05-11T21:56:20.736Z,13.31
2023-05-11T21:58:49.539Z,13.62
2023-05-11T22:01:17.350Z,13.53
2023-05-11T22:03:44.552Z,13.46
2023-05-11T22:06:11.513Z,13.34
2023-05-11T22:08:38.700Z,13.19
2023-05-11T22:11:05.614Z,13.00
2023-05-11T22:13:32.820Z,12.85
2023-05-11T22:15:59.695Z,13.32
2023-05-11T22:18:26.728Z,13.25
2023-05-11T22:20:53.732Z,13.13
2023-05-11T22:23:21.427Z,13.14
2023-05-11T22:25:48.589Z,13.36
2023-05-11T22:28:15.531Z,13.12
2023-05-11T22:30:45.072Z,13.40
2023-05-11T22:33:12.042Z,13.33
2023-05-11T22:35:40.135Z,13.18
2023-05-11T22:38:07.449Z,13.60
2023-05-11T22:40:34.434Z,13.20
2023-05-11T22:43:01.265Z,13.28
2023-05-11T22:45:28.403Z,13.49
2023-05-11T22:47:55.339Z,13.54
2023-05-11T22:50:22.392Z,13.39
2023-05-11T22:52:49.272Z,13.09
2023-05-11T22:55:16.392Z,12.99
2023-05-11T22:57:44.391Z,12.98
2023-05-11T23:00:12.381Z,12.96
2023-05-11T23:02:47.126Z,12.89
2023-05-11T23:05:14.360Z,12.96
2023-05-11T23:07:41.334Z,12.86
2023-05-11T23:10:09.078Z,12.89
2023-05-11T23:12:36.333Z,12.99
2023-05-11T23:15:03.373Z,12.78
2023-05-11T23:17:30.624Z,12.65
2023-05-11T23:19:57.761Z,12.70
2023-05-11T23:22:24.861Z,12.80
2023-05-11T23:24:52.158Z,12.59
2023-05-11T23:27:19.447Z,12.54
2023-05-11T23:29:46.537Z,12.61
2023-05-11T23:32:13.296Z,12.54
2023-05-11T23:34:40.364Z,12.61
2023-05-11T23:37:07.673Z,12.39
2023-05-11T23:39:34.874Z,12.14
2023-05-11T23:42:01.930Z,12.26
2023-05-11T23:44:29.085Z,12.40
2023-05-11T23:46:58.916Z,12.20
2023-05-11T23:49:26.232Z,12.41
2023-05-11T23:51:54.381Z,12.44
2023-05-11T23:54:30.299Z,12.23
2023-05-11T23:56:57.372Z,12.34
2023-05-11T23:59:24.612Z,12.23
